Time;durP1;ratioP1;P1;durP2;ratioP2;P2;SDS_P1;SDS_P2;PMS_P1;PMS_P2;Temp;Humidity;BMP_temperature;BMP_pressure;BME280_temperature;BME280_humidity;BME280_pressure;Samples;Min_cycle;Max_cycle;Signal;HPM_P1;HPM_P2
2023/08/15 00:02:17;;;;;;;9.73;6.27;;;21.20;99.90;;;;;;5072763;28;20449;-63
2023/08/15 00:04:44;;;;;;;8.60;6.73;;;21.20;99.90;;;;;;5072993;28;20443;-64
2023/08/15 00:07:12;;;;;;;7.43;6.70;;;21.20;99.90;;;;;;5073106;28;20469;-62
2023/08/15 00:09:39;;;;;;;7.30;5.90;;;21.20;99.90;;;;;;5073575;28;20450;-62
2023/08/15 00:12:06;;;;;;;7.30;5.90;;;21.10;99.90;;;;;;5073221;28;20461;-63
2023/08/15 00:14:33;;;;;;;8.07;6.80;;;21.10;99.90;;;;;;5073129;28;20451;-62
2023/08/15 00:17:00;;;;;;;18.73;7.07;;;21.10;99.90;;;;;;5073115;28;20488;-62
2023/08/15 00:19:26;;;;;;;8.90;6.90;;;21.10;99.90;;;;;;5072887;28;20540;-62
2023/08/15 00:21:53;;;;;;;14.17;6.03;;;21.00;99.90;;;;;;5073412;28;20446;-63
2023/08/15 00:24:21;;;;;;;7.50;5.60;;;21.00;99.90;;;;;;5072746;28;20781;-63
2023/08/15 00:26:48;;;;;;;8.30;5.70;;;21.00;99.90;;;;;;5073997;28;20452;-63
2023/08/15 00:29:15;;;;;;;7.63;5.90;;;21.00;99.90;;;;;;5077756;28;20445;-63
2023/08/15 00:31:41;;;;;;;8.10;6.10;;;20.90;99.90;;;;;;5076894;28;20943;-63
2023/08/15 00:34:08;;;;;;;8.57;6.77;;;20.90;99.90;;;;;;5078127;28;20441;-62
2023/08/15 00:36:35;;;;;;;11.67;5.87;;;20.90;99.90;;;;;;5078456;28;20479;-63
2023/08/15 00:39:02;;;;;;;7.83;5.40;;;20.80;99.90;;;;;;5079348;28;20812;-63
2023/08/15 00:41:30;;;;;;;7.40;5.33;;;20.80;99.90;;;;;;5078773;28;20458;-62
2023/08/15 00:43:58;;;;;;;9.23;5.90;;;20.80;99.90;;;;;;5078711;28;20473;-63
2023/08/15 00:46:25;;;;;;;7.97;6.10;;;20.80;99.90;;;;;;5076730;28;20446;-63
2023/08/15 00:48:53;;;;;;;6.17;5.57;;;20.70;99.90;;;;;;5076582;28;20477;-62
2023/08/15 00:51:20;;;;;;;9.43;5.90;;;20.70;99.90;;;;;;5076318;28;20970;-63
2023/08/15 00:53:47;;;;;;;9.00;6.30;;;20.70;99.90;;;;;;5076489;28;20516;-63
2023/08/15 00:56:16;;;;;;;7.00;5.93;;;20.70;99.90;;;;;;5076003;28;20807;-64
2023/08/15 00:58:45;;;;;;;7.33;5.63;;;20.70;99.90;;;;;;5075964;28;20457;-63
2023/08/15 01:01:16;;;;;;;5.70;5.10;;;20.70;99.90;;;;;;5076448;28;20437;-63
2023/08/15 01:03:43;;;;;;;9.10;6.20;;;20.60;99.90;;;;;;5076339;28;20497;-63
2023/08/15 01:06:10;;;;;;;5.93;4.83;;;20.60;99.90;;;;;;5076521;28;20441;-63
2023/08/15 01:08:37;;;;;;;6.83;6.13;;;20.60;99.90;;;;;;5076410;28;20456;-63
2023/08/15 01:11:05;;;;;;;7.03;5.90;;;20.60;99.90;;;;;;5081745;28;20449;-64
2023/08/15 01:13:36;;;;;;;13.60;5.60;;;20.50;99.90;;;;;;5091580;28;20442;-64
2023/08/15 01:16:11;;;;;;;6.50;5.73;;;20.50;99.90;;;;;;5078544;28;20424;-63
2023/08/15 01:18:42;;;;;;;8.73;6.37;;;20.50;99.90;;;;;;5076418;28;20481;-63
2023/08/15 01:21:08;;;;;;;11.17;6.27;;;20.50;99.90;;;;;;5075804;28;20419;-63
2023/08/15 01:23:40;;;;;;;6.90;6.30;;;20.50;99.90;;;;;;5076025;28;20439;-63
2023/08/15 01:26:07;;;;;;;6.40;5.77;;;20.40;99.90;;;;;;5076140;28;20434;-64
2023/08/15 01:28:34;;;;;;;6.40;5.40;;;20.40;99.90;;;;;;5075767;28;20765;-63
2023/08/15 01:31:07;;;;;;;7.13;5.97;;;20.40;99.90;;;;;;5075897;28;20541;-63
2023/08/15 01:33:38;;;;;;;8.53;5.60;;;20.40;99.90;;;;;;5075497;28;20895;-63
2023/08/15 01:36:14;;;;;;;6.93;5.80;;;20.40;99.90;;;;;;5075351;28;20414;-64
2023/08/15 01:38:45;;;;;;;6.67;5.97;;;20.30;99.90;;;;;;5074422;28;20488;-63
2023/08/15 01:41:15;;;;;;;8.10;6.43;;;20.30;99.90;;;;;;5075946;28;20429;-63
2023/08/15 01:43:44;;;;;;;6.70;6.07;;;20.30;99.90;;;;;;5075700;28;20529;-63
2023/08/15 01:46:12;;;;;;;9.07;5.50;;;20.30;99.90;;;;;;5075719;28;20442;-63
2023/08/15 01:48:40;;;;;;;7.13;5.50;;;20.20;99.90;;;;;;5075514;28;20462;-62
2023/08/15 01:51:07;;;;;;;8.20;6.00;;;20.20;99.90;;;;;;5075734;28;20444;-63
2023/08/15 01:53:34;;;;;;;8.43;6.07;;;20.20;99.90;;;;;;5075558;28;20441;-63
2023/08/15 01:56:02;;;;;;;8.43;6.20;;;20.20;99.90;;;;;;5075473;28;20449;-63
2023/08/15 01:58:29;;;;;;;8.43;6.30;;;20.20;99.90;;;;;;5075382;28;20483;-63
2023/08/15 02:00:56;;;;;;;7.03;5.90;;;20.20;99.90;;;;;;5075562;28;20448;-63
2023/08/15 02:03:23;;;;;;;7.70;6.17;;;20.10;99.90;;;;;;5076376;28;20441;-63
2023/08/15 02:05:49;;;;;;;7.93;5.80;;;20.10;99.90;;;;;;5075351;28;20442;-63
2023/08/15 02:08:16;;;;;;;6.67;5.97;;;20.10;99.90;;;;;;5074859;28;20485;-63
2023/08/15 02:10:43;;;;;;;11.77;5.70;;;20.10;99.90;;;;;;5075239;28;20438;-63
2023/08/15 02:13:11;;;;;;;7.17;6.40;;;20.10;99.90;;;;;;5074828;28;20445;-63
2023/08/15 02:15:38;;;;;;;7.07;6.47;;;20.10;99.90;;;;;;5074927;28;20456;-63
2023/08/15 02:18:05;;;;;;;7.20;6.50;;;20.10;99.90;;;;;;5074723;28;20494;-63
2023/08/15 02:20:32;;;;;;;8.03;6.40;;;20.00;99.90;;;;;;5074516;28;20879;-63
2023/08/15 02:22:59;;;;;;;8.33;5.77;;;20.00;99.90;;;;;;5074588;28;20458;-62
2023/08/15 02:25:25;;;;;;;10.70;6.90;;;20.00;99.90;;;;;;5074906;28;20441;-63
2023/08/15 02:27:52;;;;;;;8.50;6.50;;;20.00;99.90;;;;;;5074643;28;20464;-63
2023/08/15 02:30:20;;;;;;;7.97;5.93;;;20.00;99.90;;;;;;5074695;28;20444;-63
2023/08/15 02:32:47;;;;;;;6.60;6.00;;;19.90;99.90;;;;;;5074587;28;20515;-63
2023/08/15 02:35:14;;;;;;;7.70;6.50;;;19.90;99.90;;;;;;5074706;28;20441;-63
2023/08/15 02:37:40;;;;;;;8.03;6.50;;;19.90;99.90;;;;;;5074261;28;20483;-63
2023/08/15 02:40:09;;;;;;;7.53;6.50;;;19.90;99.90;;;;;;5074655;28;20455;-63
2023/08/15 02:42:36;;;;;;;8.30;6.50;;;19.90;99.90;;;;;;5074708;28;20501;-63
2023/08/15 02:45:03;;;;;;;12.07;6.50;;;19.90;99.90;;;;;;5074953;28;20447;-63
2023/08/15 02:47:32;;;;;;;7.90;6.83;;;19.90;99.90;;;;;;5074792;28;20452;-63
2023/08/15 02:49:58;;;;;;;6.83;6.20;;;19.90;99.90;;;;;;5074985;28;20445;-62
2023/08/15 02:52:25;;;;;;;13.57;6.77;;;19.90;99.90;;;;;;5074153;28;20494;-62
2023/08/15 02:54:52;;;;;;;7.20;6.60;;;19.80;99.90;;;;;;5074539;28;20441;-62
2023/08/15 02:57:18;;;;;;;8.90;7.30;;;19.80;99.90;;;;;;5074329;28;20476;-62
2023/08/15 02:59:45;;;;;;;7.10;6.40;;;19.80;99.90;;;;;;5074064;28;20448;-62
2023/08/15 03:02:13;;;;;;;6.23;5.63;;;19.80;99.90;;;;;;5074136;28;20442;-63
2023/08/15 03:04:41;;;;;;;7.47;5.90;;;19.80;99.90;;;;;;5074025;28;20448;-62
2023/08/15 03:07:08;;;;;;;7.90;6.10;;;19.80;99.90;;;;;;5073972;28;20482;-62
2023/08/15 03:09:35;;;;;;;7.90;6.40;;;19.80;99.90;;;;;;5073747;28;20812;-62
2023/08/15 03:12:02;;;;;;;6.80;6.10;;;19.80;99.90;;;;;;5074118;28;20460;-62
2023/08/15 03:14:29;;;;;;;6.87;6.27;;;19.80;99.90;;;;;;5074482;28;20844;-63
2023/08/15 03:16:56;;;;;;;7.43;5.80;;;19.80;99.90;;;;;;5074622;28;20524;-62
2023/08/15 03:19:23;;;;;;;7.03;5.70;;;19.70;99.90;;;;;;5073945;28;20451;-63
2023/08/15 03:21:51;;;;;;;8.47;7.00;;;19.70;99.90;;;;;;5073766;28;20444;-63
2023/08/15 03:24:17;;;;;;;9.97;6.70;;;19.70;99.90;;;;;;5073423;28;20929;-63
2023/08/15 03:26:44;;;;;;;8.33;6.80;;;19.70;99.90;;;;;;5073218;28;20499;-63
2023/08/15 03:29:11;;;;;;;8.67;6.27;;;19.70;99.90;;;;;;5073647;28;20439;-63
2023/08/15 03:31:38;;;;;;;8.10;6.10;;;19.70;99.90;;;;;;5073768;28;20442;-63
2023/08/15 03:34:05;;;;;;;6.93;5.87;;;19.70;99.90;;;;;;5075963;28;20443;-63
2023/08/15 03:36:31;;;;;;;8.80;6.33;;;19.70;99.90;;;;;;5074284;28;20998;-62
2023/08/15 03:39:00;;;;;;;9.43;5.83;;;19.60;99.90;;;;;;5073533;28;20483;-63
2023/08/15 03:41:26;;;;;;;7.17;6.43;;;19.70;99.90;;;;;;5073243;28;20995;-62
2023/08/15 03:43:53;;;;;;;10.27;6.60;;;19.60;99.90;;;;;;5073703;28;20441;-63
2023/08/15 03:46:20;;;;;;;8.17;7.47;;;19.60;99.90;;;;;;5073246;28;20451;-62
2023/08/15 03:48:47;;;;;;;6.30;5.70;;;19.50;99.90;;;;;;5073501;28;20456;-63
2023/08/15 03:51:14;;;;;;;10.07;7.00;;;19.60;99.90;;;;;;5073050;28;20451;-63
2023/08/15 03:53:43;;;;;;;10.53;6.10;;;19.50;99.90;;;;;;5073437;28;20447;-63
2023/08/15 03:56:11;;;;;;;6.50;5.77;;;19.50;99.90;;;;;;5072899;28;20822;-62
2023/08/15 03:58:38;;;;;;;6.70;5.97;;;19.50;99.90;;;;;;5072725;28;20510;-62
2023/08/15 04:01:05;;;;;;;7.53;6.53;;;19.50;99.90;;;;;;5072810;28;20937;-62
2023/08/15 04:03:31;;;;;;;7.70;6.80;;;19.50;99.90;;;;;;5072406;28;20929;-62
2023/08/15 04:05:58;;;;;;;6.83;6.23;;;19.50;99.90;;;;;;5073063;28;20431;-63
2023/08/15 04:08:25;;;;;;;7.70;5.90;;;19.50;99.90;;;;;;5073023;28;20482;-63
2023/08/15 04:12:04;;;;;;;7.90;7.03;;;19.50;99.90;;;;;;5111891;27;1236709;-63
2023/08/15 04:14:31;;;;;;;10.20;6.50;;;19.50;99.90;;;;;;5131602;28;20197;-63
2023/08/15 04:16:58;;;;;;;8.40;6.20;;;19.50;99.90;;;;;;5129395;28;20453;-64
2023/08/15 04:19:24;;;;;;;9.77;6.60;;;19.50;99.90;;;;;;5110904;28;20444;-63
2023/08/15 04:21:51;;;;;;;7.77;6.43;;;19.50;99.90;;;;;;5110662;28;20438;-63
2023/08/15 04:24:19;;;;;;;7.20;6.53;;;19.50;99.90;;;;;;5111146;28;20449;-63
2023/08/15 04:26:46;;;;;;;7.80;6.80;;;19.50;99.90;;;;;;5111669;28;20479;-62
2023/08/15 04:29:14;;;;;;;6.80;6.00;;;19.60;99.90;;;;;;5111342;28;20436;-61
2023/08/15 04:31:41;;;;;;;6.30;5.63;;;19.70;99.90;;;;;;5111162;28;20479;-61
2023/08/15 04:34:08;;;;;;;7.30;5.70;;;19.80;99.90;;;;;;5111036;28;20445;-64
2023/08/15 04:36:34;;;;;;;6.10;5.60;;;19.90;99.90;;;;;;5110352;28;20452;-62
2023/08/15 04:39:02;;;;;;;6.60;5.80;;;20.10;99.90;;;;;;5110457;28;20456;-62
2023/08/15 04:41:29;;;;;;;8.10;5.43;;;20.30;99.90;;;;;;5127618;22;20501;-61
2023/08/15 04:43:56;;;;;;;6.00;5.47;;;20.40;99.90;;;;;;5090424;28;20434;-60
2023/08/15 04:46:24;;;;;;;6.83;5.77;;;20.60;99.90;;;;;;5090280;28;20442;-61
2023/08/15 04:48:50;;;;;;;7.70;5.57;;;20.80;99.90;;;;;;5089923;28;20434;-61
2023/08/15 04:51:17;;;;;;;9.60;6.63;;;21.00;99.90;;;;;;5094786;28;20481;-62
2023/08/15 04:53:44;;;;;;;7.93;4.83;;;21.20;99.90;;;;;;5110564;28;20444;-61
2023/08/15 04:56:11;;;;;;;6.50;5.90;;;21.40;99.90;;;;;;5110881;28;20554;-59
2023/08/15 04:58:38;;;;;;;6.20;5.10;;;21.50;99.90;;;;;;5110471;28;20437;-61
2023/08/15 05:01:05;;;;;;;6.27;5.67;;;21.60;99.90;;;;;;5109635;28;20954;-62
2023/08/15 05:03:32;;;;;;;8.00;5.90;;;21.80;99.90;;;;;;5110397;28;20437;-61
2023/08/15 05:05:59;;;;;;;5.90;5.30;;;22.00;99.90;;;;;;5110382;28;20500;-61
2023/08/15 05:08:26;;;;;;;9.43;5.43;;;22.20;99.90;;;;;;5110394;28;20441;-60
2023/08/15 05:10:54;;;;;;;5.60;5.00;;;22.40;99.90;;;;;;5109948;28;20852;-61
2023/08/15 05:13:20;;;;;;;4.50;4.07;;;22.60;99.90;;;;;;5110087;28;20794;-61
2023/08/15 05:15:47;;;;;;;8.00;4.83;;;22.90;99.90;;;;;;5110189;28;20935;-61
2023/08/15 05:18:15;;;;;;;5.20;4.40;;;23.10;99.90;;;;;;5109840;28;20784;-61
2023/08/15 05:20:43;;;;;;;5.63;4.40;;;23.40;99.90;;;;;;5110679;28;20452;-61
2023/08/15 05:23:10;;;;;;;3.97;3.67;;;23.60;99.90;;;;;;5097803;28;21005;-60
2023/08/15 05:25:37;;;;;;;7.20;4.63;;;23.80;99.90;;;;;;5096189;28;20444;-61
2023/08/15 05:28:04;;;;;;;6.40;4.77;;;23.90;99.90;;;;;;5096433;28;20445;-61
2023/08/15 05:30:32;;;;;;;9.10;5.40;;;24.00;99.90;;;;;;5096412;28;20477;-62
2023/08/15 05:32:59;;;;;;;6.13;4.37;;;24.10;99.90;;;;;;5095945;28;20554;-61
2023/08/15 05:35:25;;;;;;;6.57;4.50;;;24.10;99.90;;;;;;5095634;28;20442;-61
2023/08/15 05:37:55;;;;;;;5.93;4.73;;;24.00;99.90;;;;;;5095744;28;20809;-62
2023/08/15 05:40:21;;;;;;;11.47;4.90;;;23.90;99.90;;;;;;5095762;28;20443;-61
2023/08/15 05:42:48;;;;;;;6.23;4.40;;;23.90;99.90;;;;;;5095393;28;20470;-61
2023/08/15 05:45:15;;;;;;;5.63;4.10;;;23.80;99.90;;;;;;5096212;28;20866;-60
2023/08/15 05:47:42;;;;;;;8.30;5.27;;;23.70;99.90;;;;;;5096420;28;20458;-61
2023/08/15 05:50:10;;;;;;;6.90;4.80;;;23.60;99.90;;;;;;5095365;28;20446;-61
2023/08/15 05:52:37;;;;;;;7.70;4.47;;;23.50;99.90;;;;;;5096701;28;20463;-60
2023/08/15 05:55:06;;;;;;;7.13;5.07;;;23.40;99.90;;;;;;5096715;28;20795;-60
2023/08/15 05:57:32;;;;;;;5.20;4.50;;;23.30;99.90;;;;;;5096721;28;20430;-59
2023/08/15 05:59:59;;;;;;;6.57;5.40;;;23.20;99.90;;;;;;5096949;28;20442;-61
2023/08/15 06:02:26;;;;;;;5.77;4.53;;;23.20;99.90;;;;;;5095672;28;20454;-61
2023/08/15 06:04:53;;;;;;;7.07;4.20;;;23.10;99.90;;;;;;5096925;28;20438;-62
2023/08/15 06:07:20;;;;;;;4.90;3.80;;;22.90;99.90;;;;;;5095476;28;20438;-61
2023/08/15 06:09:46;;;;;;;6.97;4.50;;;22.80;99.90;;;;;;5095250;28;20434;-61
2023/08/15 06:12:14;;;;;;;8.03;4.97;;;22.70;99.90;;;;;;5094472;28;20856;-61
2023/08/15 06:14:41;;;;;;;5.20;4.50;;;22.60;99.90;;;;;;5094779;28;20930;-61
2023/08/15 06:17:08;;;;;;;5.50;5.00;;;22.50;99.90;;;;;;5095306;28;20433;-60
2023/08/15 06:19:35;;;;;;;6.00;4.80;;;22.40;99.90;;;;;;5095197;28;20492;-61
2023/08/15 06:22:02;;;;;;;10.70;4.80;;;22.30;99.90;;;;;;5095031;28;20458;-61
2023/08/15 06:24:28;;;;;;;6.27;4.90;;;22.30;99.90;;;;;;5095854;28;20487;-61
2023/08/15 06:26:55;;;;;;;7.67;5.83;;;22.20;99.90;;;;;;5095683;28;20935;-60
2023/08/15 06:29:25;;;;;;;7.53;4.80;;;22.00;99.90;;;;;;5096020;28;20442;-62
2023/08/15 06:31:53;;;;;;;7.93;5.10;;;21.80;99.90;;;;;;5095053;28;21026;-61
2023/08/15 06:34:20;;;;;;;7.23;5.70;;;21.60;99.90;;;;;;5094100;28;20442;-60
2023/08/15 06:36:47;;;;;;;8.20;5.97;;;21.40;99.90;;;;;;5094748;28;20441;-60
2023/08/15 06:39:13;;;;;;;6.40;5.60;;;21.20;99.90;;;;;;5094449;28;20923;-60
2023/08/15 06:41:40;;;;;;;9.63;6.33;;;21.20;99.90;;;;;;5094720;28;20466;-62
2023/08/15 06:44:07;;;;;;;11.33;6.10;;;21.00;99.90;;;;;;5096078;28;20808;-61
2023/08/15 06:46:36;;;;;;;7.10;6.40;;;20.90;99.90;;;;;;5095691;28;20450;-61
2023/08/15 06:49:03;;;;;;;8.50;6.67;;;20.80;99.90;;;;;;5094156;28;20430;-59
2023/08/15 06:51:30;;;;;;;8.10;7.30;;;20.70;99.90;;;;;;5094161;28;20851;-61
2023/08/15 06:53:56;;;;;;;12.73;6.63;;;20.60;99.90;;;;;;5095372;28;20528;-62
2023/08/15 06:56:23;;;;;;;8.53;6.60;;;20.50;99.90;;;;;;5095251;28;20445;-61
2023/08/15 06:58:50;;;;;;;10.23;8.40;;;20.40;99.90;;;;;;5096201;28;20440;-60
2023/08/15 07:01:17;;;;;;;9.57;7.40;;;20.40;99.90;;;;;;5094904;28;20462;-60
2023/08/15 07:03:45;;;;;;;9.73;7.80;;;20.40;99.90;;;;;;5094514;28;20445;-60
2023/08/15 07:06:12;;;;;;;11.20;8.17;;;20.40;99.90;;;;;;5094551;28;20811;-60
2023/08/15 07:08:39;;;;;;;8.90;7.40;;;20.40;99.90;;;;;;5094196;28;20537;-59
2023/08/15 07:11:06;;;;;;;10.83;7.50;;;20.40;99.90;;;;;;5094067;28;20470;-60
2023/08/15 07:13:32;;;;;;;11.93;7.40;;;20.40;99.90;;;;;;5095081;28;20446;-61
2023/08/15 07:15:59;;;;;;;7.70;7.10;;;20.40;99.90;;;;;;5094104;28;20446;-62
2023/08/15 07:18:26;;;;;;;8.70;7.80;;;20.50;99.90;;;;;;5094840;28;20439;-60
2023/08/15 07:20:54;;;;;;;8.33;6.90;;;20.50;99.90;;;;;;5094675;28;20450;-60
2023/08/15 07:23:21;;;;;;;8.77;7.10;;;20.60;99.90;;;;;;5094560;28;20441;-60
2023/08/15 07:25:48;;;;;;;8.70;7.80;;;20.70;99.90;;;;;;5095410;28;20464;-60
2023/08/15 07:28:15;;;;;;;13.63;7.27;;;20.80;99.90;;;;;;5095218;28;20434;-61
2023/08/15 07:30:45;;;;;;;10.50;6.80;;;20.90;99.90;;;;;;5094610;28;20447;-60
2023/08/15 07:33:12;;;;;;;9.37;7.17;;;21.00;99.90;;;;;;5095273;28;20454;-60
2023/08/15 07:35:39;;;;;;;8.47;7.10;;;21.10;99.90;;;;;;5095738;28;20448;-61
2023/08/15 07:38:07;;;;;;;9.53;6.40;;;21.20;99.90;;;;;;5095330;28;20446;-60
2023/08/15 07:40:34;;;;;;;7.63;6.80;;;21.30;99.90;;;;;;5094665;28;20533;-61
2023/08/15 07:43:01;;;;;;;6.80;6.10;;;21.40;99.90;;;;;;5094448;28;20474;-58
2023/08/15 07:45:28;;;;;;;7.67;6.07;;;21.50;99.90;;;;;;5094621;28;20541;-61
2023/08/15 07:47:58;;;;;;;6.63;5.60;;;21.70;99.90;;;;;;5094429;28;20442;-61
2023/08/15 07:50:26;;;;;;;10.30;5.80;;;21.80;99.90;;;;;;5094344;28;20442;-60
2023/08/15 07:52:54;;;;;;;8.07;5.23;;;21.90;99.90;;;;;;5094327;28;20585;-61
2023/08/15 07:55:22;;;;;;;7.10;5.40;;;22.00;99.90;;;;;;5095011;28;20442;-61
2023/08/15 07:57:49;;;;;;;6.43;5.83;;;22.10;99.90;;;;;;5094457;28;20449;-59
2023/08/15 08:00:16;;;;;;;6.00;5.40;;;22.10;99.90;;;;;;5094782;28;20442;-61
2023/08/15 08:02:44;;;;;;;5.40;4.90;;;22.20;99.90;;;;;;5094757;28;20835;-60
2023/08/15 08:05:14;;;;;;;6.90;5.10;;;22.30;99.90;;;;;;5095374;28;20496;-60
2023/08/15 08:07:42;;;;;;;8.57;5.10;;;22.40;99.90;;;;;;5096280;28;21016;-60
2023/08/15 08:10:09;;;;;;;7.67;5.37;;;22.40;99.90;;;;;;5094485;28;20954;-62
2023/08/15 08:12:38;;;;;;;5.80;5.20;;;22.50;99.90;;;;;;5095189;28;20478;-61
2023/08/15 08:15:05;;;;;;;6.47;4.70;;;22.70;99.90;;;;;;5094918;28;20440;-60
2023/08/15 08:17:32;;;;;;;6.03;4.90;;;23.00;99.90;;;;;;5094278;28;20812;-61
2023/08/15 08:19:59;;;;;;;5.43;4.80;;;23.30;99.90;;;;;;5094472;28;20438;-61
2023/08/15 08:22:26;;;;;;;5.53;4.67;;;23.60;99.90;;;;;;5093870;28;20462;-61
2023/08/15 08:24:53;;;;;;;3.70;3.40;;;23.90;99.90;;;;;;5093859;28;20440;-61
2023/08/15 08:27:20;;;;;;;5.63;4.00;;;24.10;99.90;;;;;;5094214;28;20545;-59
2023/08/15 08:29:49;;;;;;;4.23;3.83;;;24.10;99.90;;;;;;5094484;28;20445;-60
2023/08/15 08:32:15;;;;;;;6.43;4.13;;;24.20;99.90;;;;;;5094094;28;20975;-59
2023/08/15 08:34:42;;;;;;;5.27;4.57;;;24.30;99.90;;;;;;5094076;28;20448;-61
2023/08/15 08:37:09;;;;;;;6.80;5.00;;;24.40;99.90;;;;;;5094664;28;20445;-61
2023/08/15 08:39:36;;;;;;;4.70;4.13;;;24.40;99.90;;;;;;5094707;28;20442;-59
2023/08/15 08:42:03;;;;;;;5.93;3.80;;;24.40;99.90;;;;;;5095123;28;20462;-60
2023/08/15 08:44:32;;;;;;;4.70;3.23;;;24.50;99.90;;;;;;5095077;28;20811;-61
2023/08/15 08:47:00;;;;;;;4.60;3.47;;;24.70;99.90;;;;;;5094072;28;20445;-60
2023/08/15 08:49:29;;;;;;;3.43;3.13;;;24.90;99.90;;;;;;5093989;28;20495;-61
2023/08/15 08:51:57;;;;;;;3.87;3.57;;;25.00;99.90;;;;;;5093857;28;20488;-60
2023/08/15 08:54:24;;;;;;;4.30;3.90;;;25.20;99.90;;;;;;5093518;28;20499;-60
2023/08/15 08:56:54;;;;;;;3.97;3.17;;;25.40;99.90;;;;;;5094848;28;20438;-61
2023/08/15 08:59:24;;;;;;;4.60;2.90;;;25.60;99.90;;;;;;5097957;28;20438;-61
2023/08/15 09:01:51;;;;;;;3.87;2.40;;;25.70;99.90;;;;;;5098212;28;20516;-60
2023/08/15 09:04:21;;;;;;;2.20;2.00;;;25.70;99.90;;;;;;5098416;28;20446;-61
2023/08/15 09:06:48;;;;;;;2.77;1.87;;;25.70;99.90;;;;;;5099079;28;20445;-61
2023/08/15 09:09:15;;;;;;;2.37;2.13;;;25.60;99.90;;;;;;5098226;28;20444;-61
2023/08/15 09:11:42;;;;;;;2.67;2.47;;;25.60;99.90;;;;;;5098017;28;20539;-61
2023/08/15 09:14:09;;;;;;;2.50;2.30;;;25.60;99.90;;;;;;5098711;28;20460;-61
2023/08/15 09:16:45;;;;;;;2.23;1.80;;;25.60;99.90;;;;;;5097470;28;20438;-61
2023/08/15 09:19:12;;;;;;;2.10;1.90;;;25.60;99.90;;;;;;5097340;28;20448;-61
2023/08/15 09:21:40;;;;;;;2.20;2.00;;;25.70;99.90;;;;;;5097155;28;20780;-61
2023/08/15 09:24:08;;;;;;;2.07;1.83;;;25.70;99.90;;;;;;5097147;28;20441;-61
2023/08/15 09:26:36;;;;;;;2.30;2.10;;;25.80;99.90;;;;;;5096854;28;20444;-61
2023/08/15 09:29:04;;;;;;;4.77;1.87;;;25.90;99.90;;;;;;5097140;28;20437;-60
2023/08/15 09:31:31;;;;;;;2.30;2.10;;;26.00;99.90;;;;;;5096943;28;20550;-61
2023/08/15 09:33:58;;;;;;;6.53;2.33;;;26.20;99.90;;;;;;5097402;28;20435;-62
2023/08/15 09:36:25;;;;;;;3.57;2.20;;;26.30;99.90;;;;;;5096660;28;20452;-60
2023/08/15 09:38:57;;;;;;;2.43;2.00;;;26.40;99.90;;;;;;5096699;28;20960;-60
2023/08/15 09:41:25;;;;;;;3.47;2.50;;;26.50;99.90;;;;;;5096974;28;20466;-63
2023/08/15 09:43:53;;;;;;;2.60;2.40;;;26.60;99.90;;;;;;5096555;28;20413;-60
2023/08/15 09:46:21;;;;;;;2.40;1.97;;;26.50;99.80;;;;;;5096533;28;20443;-60
2023/08/15 09:48:49;;;;;;;2.07;1.87;;;26.60;99.60;;;;;;5097882;28;20448;-63
2023/08/15 09:51:18;;;;;;;2.93;2.30;;;26.70;99.00;;;;;;5097974;28;20454;-61
2023/08/15 09:53:46;;;;;;;3.10;2.00;;;26.70;98.30;;;;;;5096133;28;20480;-62
2023/08/15 09:56:15;;;;;;;3.47;2.83;;;26.80;97.60;;;;;;5096852;28;20441;-63
2023/08/15 09:58:42;;;;;;;5.00;2.47;;;26.80;97.40;;;;;;5097101;28;20446;-62
2023/08/15 10:01:09;;;;;;;4.47;2.43;;;26.90;96.90;;;;;;5097206;28;20469;-61
2023/08/15 10:03:38;;;;;;;2.37;2.17;;;27.00;96.10;;;;;;5097599;28;20431;-61
2023/08/15 10:06:07;;;;;;;6.57;2.70;;;27.20;95.30;;;;;;5097070;28;20956;-62
2023/08/15 10:08:37;;;;;;;2.43;2.20;;;27.20;94.40;;;;;;5097770;28;20446;-62
2023/08/15 10:11:09;;;;;;;4.13;2.60;;;27.30;93.90;;;;;;5097388;28;20806;-62
2023/08/15 10:13:38;;;;;;;3.27;2.30;;;27.40;92.70;;;;;;5097885;28;20986;-61
2023/08/15 10:16:07;;;;;;;2.80;2.20;;;27.50;91.70;;;;;;5097641;28;20445;-62
2023/08/15 10:18:34;;;;;;;2.40;2.20;;;27.70;90.40;;;;;;5099221;28;20525;-62
2023/08/15 10:21:02;;;;;;;3.60;2.73;;;27.70;88.30;;;;;;5096708;28;20446;-62
2023/08/15 10:23:30;;;;;;;3.30;3.07;;;27.80;85.80;;;;;;5096684;28;20940;-63
2023/08/15 10:25:57;;;;;;;3.50;2.37;;;27.70;84.80;;;;;;5096671;28;20445;-62
2023/08/15 10:28:26;;;;;;;5.30;2.23;;;27.70;84.30;;;;;;5097115;28;20445;-62
2023/08/15 10:30:55;;;;;;;3.37;2.80;;;27.80;83.90;;;;;;5096079;28;20503;-62
2023/08/15 10:33:25;;;;;;;5.30;3.00;;;27.80;83.40;;;;;;5095552;28;20474;-61
2023/08/15 10:36:06;;;;;;;3.37;3.07;;;27.90;82.90;;;;;;5096360;28;20449;-61
2023/08/15 10:38:36;;;;;;;3.43;2.97;;;28.10;82.30;;;;;;5095669;28;20469;-62
2023/08/15 10:41:04;;;;;;;3.03;2.43;;;28.50;80.90;;;;;;5095230;28;20866;-61
2023/08/15 10:43:34;;;;;;;3.67;2.93;;;28.60;79.10;;;;;;5095798;28;20922;-62
2023/08/15 10:46:04;;;;;;;3.00;2.70;;;28.70;77.90;;;;;;5095387;28;20448;-62
2023/08/15 10:48:36;;;;;;;5.33;3.17;;;28.90;77.00;;;;;;5095507;28;20450;-63
2023/08/15 10:51:03;;;;;;;4.93;3.70;;;29.10;75.00;;;;;;5094878;28;20491;-62
2023/08/15 10:53:30;;;;;;;4.80;3.80;;;29.10;73.40;;;;;;5094860;28;20485;-62
2023/08/15 10:55:59;;;;;;;3.87;3.07;;;29.00;72.90;;;;;;5094744;28;20442;-62
2023/08/15 10:58:26;;;;;;;4.07;3.50;;;29.00;72.40;;;;;;5094713;28;20442;-61
2023/08/15 11:00:55;;;;;;;5.03;3.30;;;28.90;71.90;;;;;;5094763;28;20827;-62
2023/08/15 11:03:23;;;;;;;3.63;3.33;;;28.80;71.70;;;;;;5094165;28;20844;-61
2023/08/15 11:05:50;;;;;;;4.10;3.30;;;28.80;71.70;;;;;;5095367;28;20431;-62
2023/08/15 11:08:19;;;;;;;5.73;3.60;;;28.60;71.20;;;;;;5094644;28;20465;-62
2023/08/15 11:10:50;;;;;;;3.73;3.33;;;28.50;71.80;;;;;;5095347;28;20450;-60
2023/08/15 11:13:17;;;;;;;6.43;4.83;;;28.30;71.90;;;;;;5094174;28;20470;-61
2023/08/15 11:15:45;;;;;;;3.67;3.27;;;28.20;72.30;;;;;;5094758;28;20438;-61
2023/08/15 11:18:12;;;;;;;5.50;4.37;;;28.00;72.90;;;;;;5095165;28;20442;-62
2023/08/15 11:20:40;;;;;;;5.13;3.80;;;27.90;73.40;;;;;;5095007;28;20442;-62
2023/08/15 11:23:07;;;;;;;5.20;4.33;;;27.90;73.70;;;;;;5095206;28;20469;-62
2023/08/15 11:25:34;;;;;;;3.90;3.60;;;27.90;74.20;;;;;;5094477;28;20442;-61
2023/08/15 11:28:01;;;;;;;5.47;3.70;;;27.90;74.20;;;;;;5094538;28;20442;-62
2023/08/15 11:30:28;;;;;;;3.23;3.03;;;27.90;74.40;;;;;;5094756;28;20446;-62
2023/08/15 11:32:55;;;;;;;4.50;4.10;;;27.90;74.60;;;;;;5094943;28;20569;-63
2023/08/15 11:35:23;;;;;;;4.60;3.93;;;28.00;74.20;;;;;;5094520;28;20477;-61
2023/08/15 11:37:51;;;;;;;4.17;3.20;;;28.10;74.20;;;;;;5094521;28;20954;-61
2023/08/15 11:40:18;;;;;;;3.57;3.23;;;28.20;73.70;;;;;;5094454;28;20438;-59
2023/08/15 11:42:45;;;;;;;4.90;3.70;;;28.20;73.50;;;;;;5094159;28;20473;-62
2023/08/15 11:45:17;;;;;;;6.77;3.17;;;28.20;73.60;;;;;;5094780;28;20438;-62
2023/08/15 11:47:56;;;;;;;3.40;3.10;;;28.10;73.50;;;;;;5095019;28;20418;-62
2023/08/15 11:50:25;;;;;;;4.40;3.47;;;28.00;73.40;;;;;;5094355;28;20437;-61
2023/08/15 11:52:54;;;;;;;4.10;3.60;;;28.00;73.80;;;;;;5094100;28;20489;-60
2023/08/15 11:55:21;;;;;;;5.63;3.43;;;28.00;73.50;;;;;;5095192;28;20434;-60
2023/08/15 11:57:47;;;;;;;3.97;3.60;;;28.00;73.10;;;;;;5094228;28;20810;-61
2023/08/15 12:00:16;;;;;;;4.83;3.70;;;28.00;72.80;;;;;;5094544;28;20450;-61
2023/08/15 12:02:44;;;;;;;4.00;3.23;;;27.80;73.10;;;;;;5093864;28;21025;-62
2023/08/15 12:05:12;;;;;;;4.50;3.60;;;27.80;73.50;;;;;;5095224;28;20453;-60
2023/08/15 12:07:39;;;;;;;8.27;4.70;;;27.70;73.70;;;;;;5094494;28;20940;-63
2023/08/15 12:10:10;;;;;;;4.60;4.20;;;27.70;74.20;;;;;;5094031;28;20489;-62
2023/08/15 12:12:41;;;;;;;3.83;3.53;;;27.70;74.40;;;;;;5093647;28;20478;-62
2023/08/15 12:15:10;;;;;;;3.33;3.10;;;27.70;74.30;;;;;;5093091;28;20449;-61
2023/08/15 12:17:38;;;;;;;4.60;3.93;;;27.60;74.70;;;;;;5093334;28;20453;-62
2023/08/15 12:20:07;;;;;;;5.17;3.93;;;27.50;75.00;;;;;;5095028;28;20442;-62
2023/08/15 12:22:35;;;;;;;5.43;3.73;;;27.40;75.50;;;;;;5096083;28;20464;-62
2023/08/15 12:25:01;;;;;;;6.10;3.90;;;27.40;75.80;;;;;;5096280;28;20963;-60
2023/08/15 12:27:30;;;;;;;4.80;3.67;;;27.30;76.30;;;;;;5095993;28;20438;-62
2023/08/15 12:29:57;;;;;;;5.37;3.90;;;27.30;76.50;;;;;;5096655;28;20454;-61
2023/08/15 12:32:25;;;;;;;3.97;3.67;;;27.20;76.70;;;;;;5096910;28;20453;-62
2023/08/15 12:34:52;;;;;;;4.73;4.33;;;27.20;77.10;;;;;;5098293;28;20434;-59
2023/08/15 12:37:18;;;;;;;4.57;4.20;;;27.20;77.50;;;;;;5097252;28;20779;-63
2023/08/15 12:39:45;;;;;;;4.53;4.13;;;27.30;77.70;;;;;;5098071;28;20438;-59
2023/08/15 12:42:13;;;;;;;4.57;4.20;;;27.30;77.70;;;;;;5097437;28;20466;-60
2023/08/15 12:44:42;;;;;;;4.27;3.87;;;27.50;77.70;;;;;;5097190;28;20482;-60
2023/08/15 12:47:09;;;;;;;4.20;3.80;;;27.60;77.50;;;;;;5096812;28;20868;-61
2023/08/15 12:49:36;;;;;;;5.00;4.53;;;27.60;76.40;;;;;;5096795;28;21004;-62